createdAt,value
2022-10-11T00:00:25.094Z,4
2022-10-11T00:05:25.106Z,5.7
2022-10-11T00:10:25.101Z,6.6
2022-10-11T00:15:25.108Z,0
2022-10-11T00:20:25.095Z,0
2022-10-11T00:25:25.101Z,0
2022-10-11T00:30:25.097Z,0
2022-10-11T00:35:25.103Z,5.7
2022-10-11T00:40:25.098Z,4.8
2022-10-11T00:45:25.099Z,4
2022-10-11T00:50:25.092Z,8.4
2022-10-11T00:55:25.097Z,4.9
2022-10-11T01:00:25.103Z,0
2022-10-11T01:05:29.451Z,10.2
2022-10-11T01:10:25.095Z,11.9
2022-10-11T01:15:25.110Z,12.3
2022-10-11T01:20:25.100Z,16.4
2022-10-11T01:25:25.105Z,16.4
2022-10-11T01:30:25.109Z,14.9
2022-10-11T01:35:25.099Z,13.5
2022-10-11T01:40:25.097Z,14.7
2022-10-11T01:45:25.096Z,15.5
2022-10-11T01:50:25.094Z,15.5
2022-10-11T01:55:25.109Z,10.7
2022-10-11T02:00:25.098Z,10.8
2022-10-11T02:05:25.098Z,15.3
2022-10-11T02:10:25.103Z,15.2
2022-10-11T02:15:25.112Z,13.6
2022-10-11T02:20:25.128Z,13.6
2022-10-11T02:25:25.099Z,15.8
2022-10-11T02:30:25.091Z,13.6
2022-10-11T02:35:25.112Z,12.4
2022-10-11T02:40:25.088Z,11.9
2022-10-11T02:45:25.096Z,10.6
2022-10-11T02:50:25.103Z,12
2022-10-11T02:55:25.101Z,11.8
2022-10-11T03:00:25.090Z,12.8
2022-10-11T03:05:25.096Z,11.4
2022-10-11T03:10:25.089Z,11.4
2022-10-11T03:15:25.106Z,16.1
2022-10-11T03:20:25.100Z,14
2022-10-11T03:25:25.101Z,13.2
2022-10-11T03:30:25.098Z,14.5
2022-10-11T03:35:25.103Z,11.1
2022-10-11T03:40:25.086Z,13.6
2022-10-11T03:45:25.087Z,12.1
2022-10-11T03:50:25.095Z,10.6
2022-10-11T03:55:25.097Z,11.7
2022-10-11T04:00:25.095Z,13.4
2022-10-11T04:05:25.094Z,10.8
2022-10-11T04:10:25.102Z,10.1
2022-10-11T04:15:25.100Z,10.5
2022-10-11T04:20:25.098Z,9.7
2022-10-11T04:25:25.101Z,9.9
2022-10-11T04:30:25.101Z,10.7
2022-10-11T04:35:25.092Z,10.3
2022-10-11T04:40:25.092Z,11.6
2022-10-11T04:45:25.096Z,11.1
2022-10-11T04:50:25.096Z,10
2022-10-11T04:55:25.100Z,13.2
2022-10-11T05:00:25.109Z,14.3
2022-10-11T05:05:25.105Z,12.3
2022-10-11T05:10:25.092Z,11.4
2022-10-11T05:15:25.096Z,13.5
2022-10-11T05:20:25.095Z,12.4
2022-10-11T05:25:25.101Z,14.3
2022-10-11T05:30:25.095Z,14
2022-10-11T05:35:25.111Z,15.3
2022-10-11T05:40:25.097Z,17.3
2022-10-11T05:45:25.103Z,17
2022-10-11T05:50:25.091Z,16.2
2022-10-11T05:55:25.107Z,17.7
2022-10-11T06:00:25.106Z,19.6
2022-10-11T06:05:25.101Z,15.2
2022-10-11T06:10:25.101Z,17.9
2022-10-11T06:15:25.099Z,16.6
2022-10-11T06:20:25.094Z,20.3
2022-10-11T06:25:25.116Z,20.1
2022-10-11T06:30:25.094Z,20.2
2022-10-11T06:35:25.095Z,16.4
2022-10-11T06:40:25.100Z,16.7
2022-10-11T06:45:25.100Z,18.4
2022-10-11T06:50:40.979Z,16.3
2022-10-11T06:55:25.109Z,15.9
2022-10-11T07:00:25.103Z,17.6
2022-10-11T07:05:25.100Z,17.6
2022-10-11T07:10:25.188Z,15.5
2022-10-11T07:15:25.098Z,15.5
2022-10-11T07:20:25.158Z,17.7
2022-10-11T07:25:25.096Z,17.7
2022-10-11T07:30:25.140Z,15.1
2022-10-11T07:35:25.103Z,19.3
2022-10-11T07:40:25.091Z,18.2
2022-10-11T07:45:25.112Z,16.6
2022-10-11T07:50:25.092Z,16.6
2022-10-11T07:55:25.114Z,16.3
2022-10-11T08:00:25.091Z,16.3
2022-10-11T08:05:25.097Z,16.5
2022-10-11T08:10:25.098Z,19.1
2022-10-11T08:15:25.101Z,19
2022-10-11T08:20:25.100Z,19.3
2022-10-11T08:25:25.116Z,21
2022-10-11T08:30:25.107Z,18.8
2022-10-11T08:35:25.093Z,20.5
2022-10-11T08:40:25.108Z,20.6
2022-10-11T08:45:25.099Z,22.3
2022-10-11T08:50:25.110Z,17.9
2022-10-11T08:55:25.101Z,21.1
2022-10-11T09:00:25.092Z,21.1
2022-10-11T09:05:25.100Z,21.6
2022-10-11T09:10:25.124Z,15.1
2022-10-11T09:15:25.103Z,18.4
2022-10-11T09:20:25.103Z,20.7
2022-10-11T09:25:25.100Z,21.5
2022-10-11T09:30:25.085Z,18.4
2022-10-11T09:35:25.124Z,16.8
2022-10-11T09:40:25.100Z,17.8
2022-10-11T09:45:25.108Z,18.6
2022-10-11T09:50:25.097Z,19
2022-10-11T09:55:25.092Z,18
2022-10-11T10:00:25.103Z,18.2
2022-10-11T10:05:25.091Z,17.1
2022-10-11T10:10:25.098Z,20.6
2022-10-11T10:15:25.111Z,19
2022-10-11T10:20:25.104Z,14
2022-10-11T10:25:25.095Z,17.3
2022-10-11T10:30:25.099Z,18.8
2022-10-11T10:35:25.085Z,21.4
2022-10-11T10:40:25.092Z,16.9
2022-10-11T10:45:25.095Z,17.1
2022-10-11T10:50:25.098Z,19.5
2022-10-11T10:55:25.233Z,18
2022-10-11T11:00:25.123Z,19.6
2022-10-11T11:05:25.121Z,14.8
2022-10-11T11:10:25.109Z,17.5
2022-10-11T11:15:31.392Z,15
2022-10-11T11:20:25.106Z,16.9
2022-10-11T11:25:25.105Z,17.5
2022-10-11T11:30:25.119Z,20
2022-10-11T11:35:25.113Z,15.3
2022-10-11T11:40:25.110Z,17.6
2022-10-11T11:45:25.111Z,17.3
2022-10-11T11:50:25.121Z,16.4
2022-10-11T11:55:25.097Z,15.9
2022-10-11T12:00:25.105Z,16.3
2022-10-11T12:05:25.113Z,13.8
2022-10-11T12:10:25.107Z,10
2022-10-11T12:15:25.104Z,15.2
2022-10-11T12:20:25.107Z,13.7
2022-10-11T12:25:25.106Z,12.9
2022-10-11T12:30:25.108Z,13.2
2022-10-11T12:35:25.100Z,12
2022-10-11T12:40:25.097Z,13.9
2022-10-11T12:45:25.096Z,11.6
2022-10-11T12:50:25.094Z,11.6
2022-10-11T12:55:25.096Z,14.9
2022-10-11T13:00:25.121Z,14.9
2022-10-11T13:05:25.103Z,13.2
2022-10-11T13:10:25.112Z,13.2
2022-10-11T13:15:25.108Z,12.6
2022-10-11T13:20:25.092Z,12.6
2022-10-11T13:25:25.112Z,14
2022-10-11T13:30:25.099Z,12.9
2022-10-11T13:35:25.117Z,11.8
2022-10-11T13:40:25.091Z,12.9
2022-10-11T13:45:25.092Z,11.1
2022-10-11T13:50:25.090Z,11.1
2022-10-11T13:55:25.296Z,12.9
2022-10-11T14:00:25.104Z,12.5
2022-10-11T14:05:25.108Z,12
2022-10-11T14:10:25.116Z,11.1
2022-10-11T14:15:25.113Z,13.6
2022-10-11T14:20:27.334Z,9.8
2022-10-11T14:25:25.101Z,12.4
2022-10-11T14:30:26.881Z,12.6
2022-10-11T14:35:25.108Z,11.7
2022-10-11T14:40:25.094Z,13.5
2022-10-11T14:45:25.102Z,11.9
2022-10-11T14:50:25.107Z,10.3
2022-10-11T14:55:25.093Z,11.4
2022-10-11T15:00:25.093Z,12.5
2022-10-11T15:05:26.898Z,9.8
2022-10-11T15:10:25.098Z,9.8
2022-10-11T15:15:25.100Z,11.5
2022-10-11T15:20:25.099Z,13.5
2022-10-11T15:25:25.104Z,10.6
2022-10-11T15:30:25.123Z,9.6
2022-10-11T15:35:25.099Z,9.8
2022-10-11T15:40:25.096Z,9.6
2022-10-11T15:45:25.102Z,9.8
2022-10-11T15:50:25.094Z,8.5
2022-10-11T15:55:25.102Z,7.9
2022-10-11T16:00:25.093Z,7.2
2022-10-11T16:05:25.103Z,6.7
2022-10-11T16:10:25.100Z,4.2
2022-10-11T16:15:25.095Z,6.2
2022-10-11T16:20:25.095Z,6.7
2022-10-11T16:25:25.115Z,8.3
2022-10-11T16:30:25.118Z,8.3
2022-10-11T16:35:27.915Z,9
2022-10-11T16:40:25.123Z,9.8
2022-10-11T16:45:25.134Z,9.2
2022-10-11T16:50:25.121Z,9.5
2022-10-11T16:55:25.114Z,9.3
2022-10-11T17:00:25.155Z,9.1
2022-10-11T17:05:25.120Z,10.2
2022-10-11T17:10:25.120Z,9.3
2022-10-11T17:15:25.113Z,9.5
2022-10-11T17:20:25.118Z,10.2
2022-10-11T17:25:25.113Z,9.9
2022-10-11T17:30:25.103Z,10.6
2022-10-11T17:35:25.095Z,11.2
2022-10-11T17:40:25.097Z,10.1
2022-10-11T17:45:25.103Z,11.1
2022-10-11T17:50:25.108Z,10.4
2022-10-11T17:55:25.102Z,10.7
2022-10-11T18:00:25.108Z,10.5
2022-10-11T18:05:25.107Z,10.4
2022-10-11T18:10:25.088Z,10.2
2022-10-11T18:15:25.108Z,10.5
2022-10-11T18:20:25.093Z,10.2
2022-10-11T18:25:25.130Z,10.8
2022-10-11T18:30:25.108Z,8.9
2022-10-11T18:35:25.106Z,9.2
2022-10-11T18:40:25.102Z,8.6
2022-10-11T18:45:25.118Z,9.7
2022-10-11T18:50:25.107Z,9.7
2022-10-11T18:55:25.110Z,9.4
2022-10-11T19:00:40.504Z,9.9
2022-10-11T19:05:25.091Z,10.1
2022-10-11T19:10:25.099Z,9
2022-10-11T19:15:28.568Z,11.2
2022-10-11T19:20:25.091Z,11.2
2022-10-11T19:25:25.102Z,9.1
2022-10-11T19:30:25.088Z,9.7
2022-10-11T19:35:25.097Z,10.5
2022-10-11T19:40:25.095Z,11.2
2022-10-11T19:45:25.098Z,10.7
2022-10-11T19:50:25.089Z,12.7
2022-10-11T19:55:25.101Z,9.7
2022-10-11T20:00:25.103Z,11.6
2022-10-11T20:05:25.107Z,11.6
2022-10-11T20:10:25.098Z,11.3
2022-10-11T20:15:25.106Z,12.6
2022-10-11T20:20:25.095Z,11
2022-10-11T20:25:25.104Z,11.6
2022-10-11T20:30:25.089Z,13.7
2022-10-11T20:35:25.101Z,14.3
2022-10-11T20:40:25.099Z,11.4
2022-10-11T20:45:25.100Z,13.3
2022-10-11T20:50:25.097Z,14.4
2022-10-11T20:55:25.099Z,13.3
2022-10-11T21:00:25.093Z,16
2022-10-11T21:05:25.108Z,14.8
2022-10-11T21:10:25.099Z,15.3
2022-10-11T21:15:25.096Z,15.7
2022-10-11T21:20:25.098Z,15.6
2022-10-11T21:25:25.101Z,14.2
2022-10-11T21:30:25.105Z,14.7
2022-10-11T21:35:25.109Z,12.1
2022-10-11T21:40:25.096Z,11.2
2022-10-11T21:45:25.103Z,8.3
2022-10-11T21:50:25.097Z,9.7
2022-10-11T21:55:25.098Z,12.2
2022-10-11T22:00:25.095Z,10.5
2022-10-11T22:05:25.110Z,9.4
2022-10-11T22:10:25.102Z,7.8
2022-10-11T22:15:25.105Z,9.7
2022-10-11T22:20:25.100Z,7.5
2022-10-11T22:25:25.116Z,8.4
2022-10-11T22:30:25.088Z,7.6
2022-10-11T22:35:25.100Z,7.6
2022-10-11T22:40:25.113Z,9.1
2022-10-11T22:45:25.107Z,9.4
2022-10-11T22:50:25.100Z,9.4
2022-10-11T22:55:25.115Z,8.3
2022-10-11T23:00:25.089Z,10.3
2022-10-11T23:05:25.120Z,11.9
2022-10-11T23:10:25.099Z,12.5
2022-10-11T23:15:25.117Z,14.9
2022-10-11T23:20:25.099Z,12.7
2022-10-11T23:25:25.122Z,10.8
2022-10-11T23:30:25.095Z,11.2
2022-10-11T23:35:25.097Z,12.3
2022-10-11T23:40:25.096Z,13
2022-10-11T23:45:25.102Z,12.7
2022-10-11T23:50:25.099Z,12.7
2022-10-11T23:55:25.109Z,12.2
